sensor_id;sensor_type;location;lat;lon;timestamp;pressure;altitude;pressure_sealevel;temperature;humidity
40089;BME280;25793;55.706;13.186;2022-10-13T00:00:46;101520.66;;;12.24;74.52
40089;BME280;25793;55.706;13.186;2022-10-13T00:03:14;101515.38;;;12.26;74.49
40089;BME280;25793;55.706;13.186;2022-10-13T00:05:46;101514.69;;;12.22;74.53
40089;BME280;25793;55.706;13.186;2022-10-13T00:08:15;101512.00;;;12.24;74.57
40089;BME280;25793;55.706;13.186;2022-10-13T00:10:45;101513.75;;;12.23;74.67
40089;BME280;25793;55.706;13.186;2022-10-13T00:13:12;101512.16;;;12.20;74.45
40089;BME280;25793;55.706;13.186;2022-10-13T00:15:40;101514.06;;;12.17;74.74
40089;BME280;25793;55.706;13.186;2022-10-13T00:18:07;101509.63;;;12.19;74.60
40089;BME280;25793;55.706;13.186;2022-10-13T00:20:34;101507.00;;;12.19;74.64
40089;BME280;25793;55.706;13.186;2022-10-13T00:23:01;101501.88;;;12.17;74.69
40089;BME280;25793;55.706;13.186;2022-10-13T00:25:27;101504.34;;;12.20;74.80
40089;BME280;25793;55.706;13.186;2022-10-13T00:27:54;101505.16;;;12.21;74.54
40089;BME280;25793;55.706;13.186;2022-10-13T00:30:21;101496.50;;;12.20;74.61
40089;BME280;25793;55.706;13.186;2022-10-13T00:32:49;101502.41;;;12.24;74.55
40089;BME280;25793;55.706;13.186;2022-10-13T00:35:15;101498.09;;;12.23;74.38
40089;BME280;25793;55.706;13.186;2022-10-13T00:37:42;101492.88;;;12.23;74.30
40089;BME280;25793;55.706;13.186;2022-10-13T00:40:09;101498.97;;;12.24;74.34
40089;BME280;25793;55.706;13.186;2022-10-13T00:42:35;101498.03;;;12.25;74.25
40089;BME280;25793;55.706;13.186;2022-10-13T00:45:23;101494.41;;;12.27;74.18
40089;BME280;25793;55.706;13.186;2022-10-13T00:48:00;101495.28;;;12.28;74.02
40089;BME280;25793;55.706;13.186;2022-10-13T00:50:40;101487.69;;;12.23;74.05
40089;BME280;25793;55.706;13.186;2022-10-13T00:53:08;101479.94;;;12.21;74.24
40089;BME280;25793;55.706;13.186;2022-10-13T00:55:37;101477.19;;;12.25;74.15
40089;BME280;25793;55.706;13.186;2022-10-13T00:58:07;101477.25;;;12.23;74.00
40089;BME280;25793;55.706;13.186;2022-10-13T01:00:35;101485.22;;;12.20;74.17
40089;BME280;25793;55.706;13.186;2022-10-13T01:03:02;101466.22;;;12.18;74.30
40089;BME280;25793;55.706;13.186;2022-10-13T01:05:30;101466.31;;;12.16;74.20
40089;BME280;25793;55.706;13.186;2022-10-13T01:07:56;101463.91;;;12.12;74.25
40089;BME280;25793;55.706;13.186;2022-10-13T01:13:11;101468.06;;;11.98;74.85
40089;BME280;25793;55.706;13.186;2022-10-13T01:15:50;101456.94;;;11.95;74.79
40089;BME280;25793;55.706;13.186;2022-10-13T01:18:36;101453.75;;;11.89;75.23
40089;BME280;25793;55.706;13.186;2022-10-13T01:29:31;101434.50;;;11.74;75.49
40089;BME280;25793;55.706;13.186;2022-10-13T01:34:44;101427.84;;;11.69;75.89
40089;BME280;25793;55.706;13.186;2022-10-13T01:37:32;101423.72;;;11.65;75.90
40089;BME280;25793;55.706;13.186;2022-10-13T01:40:22;101427.47;;;11.59;76.10
40089;BME280;25793;55.706;13.186;2022-10-13T01:43:00;101418.03;;;11.56;76.26
40089;BME280;25793;55.706;13.186;2022-10-13T01:45:35;101412.25;;;11.51;76.39
40089;BME280;25793;55.706;13.186;2022-10-13T01:48:04;101413.16;;;11.50;76.51
40089;BME280;25793;55.706;13.186;2022-10-13T01:50:39;101406.31;;;11.47;76.33
40089;BME280;25793;55.706;13.186;2022-10-13T01:53:06;101403.72;;;11.47;76.59
40089;BME280;25793;55.706;13.186;2022-10-13T01:55:33;101397.84;;;11.44;76.49
40089;BME280;25793;55.706;13.186;2022-10-13T01:58:00;101397.13;;;11.40;76.74
40089;BME280;25793;55.706;13.186;2022-10-13T02:00:34;101394.63;;;11.39;76.65
40089;BME280;25793;55.706;13.186;2022-10-13T02:03:16;101399.06;;;11.37;76.66
40089;BME280;25793;55.706;13.186;2022-10-13T02:05:57;101392.31;;;11.32;76.53
40089;BME280;25793;55.706;13.186;2022-10-13T02:08:43;101393.31;;;11.30;76.61
40089;BME280;25793;55.706;13.186;2022-10-13T02:11:19;101387.25;;;11.29;76.86
40089;BME280;25793;55.706;13.186;2022-10-13T02:13:53;101381.97;;;11.31;76.58
40089;BME280;25793;55.706;13.186;2022-10-13T02:16:26;101379.44;;;11.29;76.36
40089;BME280;25793;55.706;13.186;2022-10-13T02:18:55;101378.63;;;11.29;76.29
40089;BME280;25793;55.706;13.186;2022-10-13T02:21:22;101375.84;;;11.32;76.54
40089;BME280;25793;55.706;13.186;2022-10-13T02:23:49;101372.41;;;11.31;76.42
40089;BME280;25793;55.706;13.186;2022-10-13T02:26:18;101377.69;;;11.30;76.21
40089;BME280;25793;55.706;13.186;2022-10-13T02:28:50;101367.34;;;11.28;76.13
40089;BME280;25793;55.706;13.186;2022-10-13T02:31:16;101373.31;;;11.30;76.19
40089;BME280;25793;55.706;13.186;2022-10-13T02:33:43;101374.31;;;11.28;76.07
40089;BME280;25793;55.706;13.186;2022-10-13T02:36:09;101365.81;;;11.24;75.90
40089;BME280;25793;55.706;13.186;2022-10-13T02:38:36;101366.88;;;11.20;76.20
40089;BME280;25793;55.706;13.186;2022-10-13T02:41:02;101367.03;;;11.17;76.20
40089;BME280;25793;55.706;13.186;2022-10-13T02:43:29;101362.66;;;11.17;76.10
40089;BME280;25793;55.706;13.186;2022-10-13T02:45:56;101355.78;;;11.16;76.06
40089;BME280;25793;55.706;13.186;2022-10-13T02:48:22;101353.28;;;11.15;75.97
40089;BME280;25793;55.706;13.186;2022-10-13T02:50:49;101343.78;;;11.14;75.86
40089;BME280;25793;55.706;13.186;2022-10-13T02:53:16;101338.56;;;11.14;76.02
40089;BME280;25793;55.706;13.186;2022-10-13T02:55:43;101336.72;;;11.16;75.68
40089;BME280;25793;55.706;13.186;2022-10-13T02:58:09;101348.88;;;11.15;75.61
40089;BME280;25793;55.706;13.186;2022-10-13T03:00:36;101346.38;;;11.14;75.40
40089;BME280;25793;55.706;13.186;2022-10-13T03:03:05;101339.53;;;11.11;75.61
40089;BME280;25793;55.706;13.186;2022-10-13T03:05:32;101336.25;;;11.08;75.54
40089;BME280;25793;55.706;13.186;2022-10-13T03:07:58;101341.47;;;11.08;75.57
40089;BME280;25793;55.706;13.186;2022-10-13T03:10:25;101351.88;;;11.08;75.79
40089;BME280;25793;55.706;13.186;2022-10-13T03:12:53;101352.94;;;11.03;75.69
40089;BME280;25793;55.706;13.186;2022-10-13T03:15:21;101350.34;;;11.03;75.64
40089;BME280;25793;55.706;13.186;2022-10-13T03:17:48;101352.81;;;11.07;75.61
40089;BME280;25793;55.706;13.186;2022-10-13T03:20:15;101343.16;;;11.09;75.41
40089;BME280;25793;55.706;13.186;2022-10-13T03:22:41;101336.16;;;11.09;75.44
40089;BME280;25793;55.706;13.186;2022-10-13T03:25:14;101332.66;;;11.10;75.24
40089;BME280;25793;55.706;13.186;2022-10-13T03:27:42;101331.72;;;11.11;75.23
40089;BME280;25793;55.706;13.186;2022-10-13T03:30:09;101338.47;;;11.15;75.19
40089;BME280;25793;55.706;13.186;2022-10-13T03:32:37;101331.69;;;11.13;74.96
40089;BME280;25793;55.706;13.186;2022-10-13T03:35:04;101316.25;;;11.08;75.08
40089;BME280;25793;55.706;13.186;2022-10-13T03:37:31;101321.56;;;11.07;75.03
40089;BME280;25793;55.706;13.186;2022-10-13T03:39:58;101326.00;;;11.05;75.18
40089;BME280;25793;55.706;13.186;2022-10-13T03:42:25;101326.97;;;11.02;75.17
40089;BME280;25793;55.706;13.186;2022-10-13T03:44:51;101328.59;;;11.05;75.36
40089;BME280;25793;55.706;13.186;2022-10-13T03:47:22;101319.94;;;11.04;75.14
40089;BME280;25793;55.706;13.186;2022-10-13T03:49:49;101308.00;;;11.00;75.14
40089;BME280;25793;55.706;13.186;2022-10-13T03:52:15;101310.53;;;11.01;75.54
40089;BME280;25793;55.706;13.186;2022-10-13T03:54:42;101310.78;;;10.97;75.25
40089;BME280;25793;55.706;13.186;2022-10-13T03:57:09;101317.97;;;10.92;75.18
40089;BME280;25793;55.706;13.186;2022-10-13T03:59:35;101311.38;;;10.84;75.26
40089;BME280;25793;55.706;13.186;2022-10-13T04:02:02;101311.28;;;10.86;75.67
40089;BME280;25793;55.706;13.186;2022-10-13T04:04:29;101305.09;;;10.88;75.67
40089;BME280;25793;55.706;13.186;2022-10-13T04:06:56;101297.59;;;10.82;75.62
40089;BME280;25793;55.706;13.186;2022-10-13T04:09:23;101292.53;;;10.79;75.69
40089;BME280;25793;55.706;13.186;2022-10-13T04:11:50;101293.53;;;10.77;75.74
40089;BME280;25793;55.706;13.186;2022-10-13T04:14:18;101286.66;;;10.76;75.96
40089;BME280;25793;55.706;13.186;2022-10-13T04:16:45;101277.84;;;10.78;75.88
40089;BME280;25793;55.706;13.186;2022-10-13T04:19:13;101278.75;;;10.77;75.61
40089;BME280;25793;55.706;13.186;2022-10-13T04:21:41;101277.00;;;10.78;75.75
40089;BME280;25793;55.706;13.186;2022-10-13T04:24:14;101277.00;;;10.78;75.52
40089;BME280;25793;55.706;13.186;2022-10-13T04:26:43;101273.47;;;10.79;75.83
40089;BME280;25793;55.706;13.186;2022-10-13T04:29:11;101270.66;;;10.83;75.30
40089;BME280;25793;55.706;13.186;2022-10-13T04:31:39;101263.66;;;10.84;75.73
40089;BME280;25793;55.706;13.186;2022-10-13T04:34:06;101274.69;;;10.89;75.52
40089;BME280;25793;55.706;13.186;2022-10-13T04:36:33;101268.50;;;10.92;75.09
40089;BME280;25793;55.706;13.186;2022-10-13T04:38:59;101258.94;;;10.92;75.17
40089;BME280;25793;55.706;13.186;2022-10-13T04:41:26;101258.09;;;10.92;75.36
40089;BME280;25793;55.706;13.186;2022-10-13T04:43:53;101267.19;;;11.00;75.31
40089;BME280;25793;55.706;13.186;2022-10-13T04:46:22;101252.50;;;10.99;75.15
40089;BME280;25793;55.706;13.186;2022-10-13T04:48:50;101254.34;;;10.97;75.27
40089;BME280;25793;55.706;13.186;2022-10-13T04:51:22;101250.72;;;11.00;75.34
40089;BME280;25793;55.706;13.186;2022-10-13T04:54:00;101248.22;;;10.98;75.13
40089;BME280;25793;55.706;13.186;2022-10-13T04:56:27;101241.94;;;11.02;75.18
40089;BME280;25793;55.706;13.186;2022-10-13T04:58:57;101242.84;;;11.01;75.29
40089;BME280;25793;55.706;13.186;2022-10-13T05:01:25;101231.59;;;11.01;75.14
40089;BME280;25793;55.706;13.186;2022-10-13T05:03:59;101236.03;;;10.99;75.31
40089;BME280;25793;55.706;13.186;2022-10-13T05:06:31;101238.41;;;11.03;75.42
40089;BME280;25793;55.706;13.186;2022-10-13T05:08:58;101232.19;;;11.06;75.31
40089;BME280;25793;55.706;13.186;2022-10-13T05:11:28;101220.03;;;11.07;75.61
40089;BME280;25793;55.706;13.186;2022-10-13T05:13:55;101219.34;;;11.03;75.42
40089;BME280;25793;55.706;13.186;2022-10-13T05:16:23;101216.69;;;11.05;75.71
40089;BME280;25793;55.706;13.186;2022-10-13T05:18:52;101220.03;;;11.07;75.56
40089;BME280;25793;55.706;13.186;2022-10-13T05:21:28;101214.69;;;11.10;75.68
40089;BME280;25793;55.706;13.186;2022-10-13T05:23:57;101215.34;;;11.13;75.66
40089;BME280;25793;55.706;13.186;2022-10-13T05:26:26;101214.59;;;11.11;75.68
40089;BME280;25793;55.706;13.186;2022-10-13T05:28:55;101217.91;;;11.15;75.60
40089;BME280;25793;55.706;13.186;2022-10-13T05:31:25;101220.50;;;11.15;75.62
40089;BME280;25793;55.706;13.186;2022-10-13T05:33:52;101211.06;;;11.12;75.74
40089;BME280;25793;55.706;13.186;2022-10-13T05:36:31;101208.41;;;11.14;75.74
40089;BME280;25793;55.706;13.186;2022-10-13T05:39:03;101198.75;;;11.16;75.74
40089;BME280;25793;55.706;13.186;2022-10-13T05:41:31;101201.34;;;11.16;75.46
40089;BME280;25793;55.706;13.186;2022-10-13T05:44:00;101197.72;;;11.18;75.61
40089;BME280;25793;55.706;13.186;2022-10-13T05:46:28;101200.19;;;11.22;75.73
40089;BME280;25793;55.706;13.186;2022-10-13T05:48:54;101198.41;;;11.22;75.33
40089;BME280;25793;55.706;13.186;2022-10-13T05:51:25;101192.22;;;11.25;75.52
40089;BME280;25793;55.706;13.186;2022-10-13T05:53:58;101191.13;;;11.29;75.12
40089;BME280;25793;55.706;13.186;2022-10-13T05:56:33;101191.78;;;11.32;75.32
40089;BME280;25793;55.706;13.186;2022-10-13T05:59:03;101189.94;;;11.35;75.35
40089;BME280;25793;55.706;13.186;2022-10-13T06:01:35;101188.09;;;11.37;75.29
40089;BME280;25793;55.706;13.186;2022-10-13T06:04:05;101188.78;;;11.40;75.20
40089;BME280;25793;55.706;13.186;2022-10-13T06:06:34;101188.53;;;11.45;75.09
40089;BME280;25793;55.706;13.186;2022-10-13T06:09:00;101179.97;;;11.43;75.18
40089;BME280;25793;55.706;13.186;2022-10-13T06:11:27;101185.84;;;11.46;75.06
40089;BME280;25793;55.706;13.186;2022-10-13T06:13:54;101186.28;;;11.55;74.72
40089;BME280;25793;55.706;13.186;2022-10-13T06:16:20;101174.78;;;11.59;74.81
40089;BME280;25793;55.706;13.186;2022-10-13T06:18:47;101179.97;;;11.59;74.72
40089;BME280;25793;55.706;13.186;2022-10-13T06:21:14;101179.97;;;11.59;74.62
40089;BME280;25793;55.706;13.186;2022-10-13T06:23:40;101187.53;;;11.63;74.67
40089;BME280;25793;55.706;13.186;2022-10-13T06:26:07;101173.53;;;11.66;74.75
40089;BME280;25793;55.706;13.186;2022-10-13T06:28:36;101178.72;;;11.66;74.57
40089;BME280;25793;55.706;13.186;2022-10-13T06:31:04;101169.13;;;11.67;74.92
40089;BME280;25793;55.706;13.186;2022-10-13T06:33:32;101168.97;;;11.70;74.43
40089;BME280;25793;55.706;13.186;2022-10-13T06:36:03;101170.00;;;11.67;74.62
40089;BME280;25793;55.706;13.186;2022-10-13T06:38:31;101163.09;;;11.66;74.67
40089;BME280;25793;55.706;13.186;2022-10-13T06:40:59;101161.31;;;11.67;74.96
40089;BME280;25793;55.706;13.186;2022-10-13T06:43:29;101163.91;;;11.67;75.06
40089;BME280;25793;55.706;13.186;2022-10-13T06:46:08;101156.19;;;11.65;75.02
40089;BME280;25793;55.706;13.186;2022-10-13T06:48:35;101161.16;;;11.70;74.96
40089;BME280;25793;55.706;13.186;2022-10-13T06:51:03;101148.13;;;11.70;75.11
40089;BME280;25793;55.706;13.186;2022-10-13T06:53:31;101164.50;;;11.72;74.94
40089;BME280;25793;55.706;13.186;2022-10-13T06:55:59;101153.06;;;11.74;75.12
40089;BME280;25793;55.706;13.186;2022-10-13T06:58:26;101155.34;;;11.81;75.19
40089;BME280;25793;55.706;13.186;2022-10-13T07:00:54;101155.00;;;11.87;74.83
40089;BME280;25793;55.706;13.186;2022-10-13T07:03:21;101161.72;;;11.91;74.95
40089;BME280;25793;55.706;13.186;2022-10-13T07:05:49;101160.63;;;11.95;74.65
40089;BME280;25793;55.706;13.186;2022-10-13T07:08:15;101156.97;;;11.99;74.71
40089;BME280;25793;55.706;13.186;2022-10-13T07:10:42;101155.88;;;12.03;74.99
40089;BME280;25793;55.706;13.186;2022-10-13T07:13:09;101156.78;;;12.02;74.63
40089;BME280;25793;55.706;13.186;2022-10-13T07:15:39;101156.50;;;12.07;74.74
40089;BME280;25793;55.706;13.186;2022-10-13T07:18:05;101146.41;;;12.17;74.75
40089;BME280;25793;55.706;13.186;2022-10-13T07:20:32;101138.81;;;12.28;74.49
40089;BME280;25793;55.706;13.186;2022-10-13T07:22:59;101138.16;;;12.39;74.33
40089;BME280;25793;55.706;13.186;2022-10-13T07:25:26;101138.47;;;12.49;74.08
40089;BME280;25793;55.706;13.186;2022-10-13T07:27:53;101147.78;;;12.53;74.13
40089;BME280;25793;55.706;13.186;2022-10-13T07:30:20;101131.13;;;12.56;74.02
40089;BME280;25793;55.706;13.186;2022-10-13T07:32:47;101139.88;;;12.55;74.09
40089;BME280;25793;55.706;13.186;2022-10-13T07:35:14;101143.91;;;12.60;74.15
40089;BME280;25793;55.706;13.186;2022-10-13T07:37:40;101144.38;;;12.67;74.17
40089;BME280;25793;55.706;13.186;2022-10-13T07:40:07;101139.88;;;12.69;74.19
40089;BME280;25793;55.706;13.186;2022-10-13T07:42:34;101137.97;;;12.73;74.06
40089;BME280;25793;55.706;13.186;2022-10-13T07:45:01;101138.69;;;12.75;74.17
40089;BME280;25793;55.706;13.186;2022-10-13T07:47:29;101130.31;;;12.84;74.35
40089;BME280;25793;55.706;13.186;2022-10-13T07:49:55;101131.53;;;12.93;74.36
40089;BME280;25793;55.706;13.186;2022-10-13T07:52:22;101127.06;;;12.95;74.25
40089;BME280;25793;55.706;13.186;2022-10-13T07:54:49;101127.13;;;12.93;74.44
40089;BME280;25793;55.706;13.186;2022-10-13T07:57:17;101122.59;;;12.97;74.38
40089;BME280;25793;55.706;13.186;2022-10-13T07:59:43;101119.78;;;13.00;74.57
40089;BME280;25793;55.706;13.186;2022-10-13T08:02:11;101112.41;;;13.07;74.53
40089;BME280;25793;55.706;13.186;2022-10-13T08:04:38;101114.84;;;13.10;74.62
40089;BME280;25793;55.706;13.186;2022-10-13T08:07:05;101115.28;;;13.17;74.71
40089;BME280;25793;55.706;13.186;2022-10-13T08:09:32;101117.44;;;13.24;74.76
40089;BME280;25793;55.706;13.186;2022-10-13T08:11:59;101112.72;;;13.30;74.65
40089;BME280;25793;55.706;13.186;2022-10-13T08:14:28;101113.09;;;13.38;74.88
40089;BME280;25793;55.706;13.186;2022-10-13T08:16:55;101115.72;;;13.38;74.67
40089;BME280;25793;55.706;13.186;2022-10-13T08:19:23;101112.00;;;13.42;74.52
40089;BME280;25793;55.706;13.186;2022-10-13T08:21:52;101107.22;;;13.49;74.54
40089;BME280;25793;55.706;13.186;2022-10-13T08:24:25;101112.56;;;13.47;74.49
40089;BME280;25793;55.706;13.186;2022-10-13T08:26:51;101098.06;;;13.56;73.63
40089;BME280;25793;55.706;13.186;2022-10-13T08:29:18;101108.56;;;13.69;73.47
40089;BME280;25793;55.706;13.186;2022-10-13T08:31:50;101108.56;;;13.69;72.73
40089;BME280;25793;55.706;13.186;2022-10-13T08:34:18;101102.75;;;13.78;72.49
40089;BME280;25793;55.706;13.186;2022-10-13T08:36:45;101095.53;;;13.82;71.90
40089;BME280;25793;55.706;13.186;2022-10-13T08:39:12;101104.53;;;13.78;71.31
40089;BME280;25793;55.706;13.186;2022-10-13T08:41:41;101099.34;;;13.91;71.13
40089;BME280;25793;55.706;13.186;2022-10-13T08:44:22;101101.00;;;13.92;70.27
40089;BME280;25793;55.706;13.186;2022-10-13T08:47:22;101098.13;;;14.22;69.75
40089;BME280;25793;55.706;13.186;2022-10-13T08:49:50;101099.19;;;14.33;68.85
40089;BME280;25793;55.706;13.186;2022-10-13T08:52:26;101093.00;;;14.46;68.27
40089;BME280;25793;55.706;13.186;2022-10-13T08:54:54;101089.66;;;14.44;68.10
40089;BME280;25793;55.706;13.186;2022-10-13T08:57:22;101100.53;;;14.38;67.99
40089;BME280;25793;55.706;13.186;2022-10-13T08:59:49;101095.22;;;14.40;67.86
40089;BME280;25793;55.706;13.186;2022-10-13T09:02:28;101094.38;;;14.39;68.12
40089;BME280;25793;55.706;13.186;2022-10-13T09:04:56;101094.59;;;14.49;67.89
40089;BME280;25793;55.706;13.186;2022-10-13T09:07:28;101090.31;;;14.61;67.41
40089;BME280;25793;55.706;13.186;2022-10-13T09:09:55;101090.97;;;13.98;68.22
40089;BME280;25793;55.706;13.186;2022-10-13T09:12:23;101085.06;;;13.82;68.36
40089;BME280;25793;55.706;13.186;2022-10-13T09:15:02;101085.75;;;13.98;68.32
40089;BME280;25793;55.706;13.186;2022-10-13T09:17:32;101087.44;;;13.99;68.24
40089;BME280;25793;55.706;13.186;2022-10-13T09:22:42;101077.31;;;14.21;68.18
40089;BME280;25793;55.706;13.186;2022-10-13T09:25:20;101080.19;;;14.03;68.70
40089;BME280;25793;55.706;13.186;2022-10-13T09:27:59;101082.81;;;14.03;68.64
40089;BME280;25793;55.706;13.186;2022-10-13T09:30:33;101077.34;;;13.80;69.20
40089;BME280;25793;55.706;13.186;2022-10-13T09:35:35;101075.28;;;13.58;68.81
40089;BME280;25793;55.706;13.186;2022-10-13T09:38:03;101065.47;;;13.62;68.85
40089;BME280;25793;55.706;13.186;2022-10-13T09:40:30;101071.28;;;13.80;68.55
40089;BME280;25793;55.706;13.186;2022-10-13T09:42:59;101060.22;;;14.02;67.70
40089;BME280;25793;55.706;13.186;2022-10-13T09:45:27;101059.94;;;14.20;67.59
40089;BME280;25793;55.706;13.186;2022-10-13T09:48:03;101059.28;;;14.03;67.86
40089;BME280;25793;55.706;13.186;2022-10-13T09:50:33;101065.19;;;14.33;67.28
40089;BME280;25793;55.706;13.186;2022-10-13T09:56:19;101065.59;;;14.52;66.47
40089;BME280;25793;55.706;13.186;2022-10-13T09:59:04;101058.59;;;14.27;66.74
40089;BME280;25793;55.706;13.186;2022-10-13T10:01:34;101057.31;;;14.33;66.89
40089;BME280;25793;55.706;13.186;2022-10-13T10:04:07;101053.88;;;14.45;66.59
40089;BME280;25793;55.706;13.186;2022-10-13T10:06:38;101052.00;;;14.47;66.06
40089;BME280;25793;55.706;13.186;2022-10-13T10:09:32;101042.69;;;14.43;66.64
40089;BME280;25793;55.706;13.186;2022-10-13T10:12:02;101044.44;;;14.68;66.46
40089;BME280;25793;55.706;13.186;2022-10-13T10:14:35;101038.25;;;14.82;65.45
40089;BME280;25793;55.706;13.186;2022-10-13T10:28:51;101042.34;;;15.48;63.98
40089;BME280;25793;55.706;13.186;2022-10-13T10:31:44;101025.47;;;15.63;63.68
40089;BME280;25793;55.706;13.186;2022-10-13T10:37:28;101016.94;;;15.73;63.29
40089;BME280;25793;55.706;13.186;2022-10-13T10:45:25;101016.47;;;15.79;62.06
40089;BME280;25793;55.706;13.186;2022-10-13T10:47:56;101009.09;;;15.84;61.77
40089;BME280;25793;55.706;13.186;2022-10-13T10:50:25;101007.22;;;15.86;61.90
40089;BME280;25793;55.706;13.186;2022-10-13T10:53:30;101004.47;;;15.88;62.30
40089;BME280;25793;55.706;13.186;2022-10-13T10:59:19;100998.34;;;15.76;62.74
40089;BME280;25793;55.706;13.186;2022-10-13T11:04:42;100989.69;;;15.51;63.09
40089;BME280;25793;55.706;13.186;2022-10-13T11:12:24;100979.31;;;15.85;62.51
40089;BME280;25793;55.706;13.186;2022-10-13T11:15:12;100975.25;;;15.81;62.26
40089;BME280;25793;55.706;13.186;2022-10-13T11:17:40;100980.47;;;15.81;62.04
40089;BME280;25793;55.706;13.186;2022-10-13T11:36:36;100968.38;;;16.03;62.38
40089;BME280;25793;55.706;13.186;2022-10-13T11:50:30;100963.13;;;16.14;61.92
40089;BME280;25793;55.706;13.186;2022-10-13T11:55:57;100956.69;;;16.07;62.03
40089;BME280;25793;55.706;13.186;2022-10-13T11:58:31;100951.09;;;16.00;62.54
40089;BME280;25793;55.706;13.186;2022-10-13T12:03:32;100953.22;;;15.48;63.98
40089;BME280;25793;55.706;13.186;2022-10-13T12:08:33;100942.22;;;14.83;66.92
40089;BME280;25793;55.706;13.186;2022-10-13T12:11:03;100941.66;;;14.53;67.11
40089;BME280;25793;55.706;13.186;2022-10-13T12:13:34;100943.72;;;14.11;69.31
40089;BME280;25793;55.706;13.186;2022-10-13T12:16:04;100949.78;;;13.73;70.39
40089;BME280;25793;55.706;13.186;2022-10-13T12:18:36;100939.09;;;13.76;70.89
40089;BME280;25793;55.706;13.186;2022-10-13T12:23:42;100946.53;;;14.08;69.80
40089;BME280;25793;55.706;13.186;2022-10-13T12:26:18;100941.97;;;14.49;68.79
40089;BME280;25793;55.706;13.186;2022-10-13T12:28:49;100947.47;;;14.07;69.68
40089;BME280;25793;55.706;13.186;2022-10-13T12:31:20;100951.13;;;14.04;70.22
40089;BME280;25793;55.706;13.186;2022-10-13T12:33:58;100945.00;;;14.42;69.29
40089;BME280;25793;55.706;13.186;2022-10-13T12:36:29;100950.25;;;13.52;70.92
40089;BME280;25793;55.706;13.186;2022-10-13T12:39:05;100944.19;;;13.51;71.41
40089;BME280;25793;55.706;13.186;2022-10-13T12:41:39;100936.81;;;14.10;70.00
40089;BME280;25793;55.706;13.186;2022-10-13T12:44:12;100945.81;;;13.80;70.92
40089;BME280;25793;55.706;13.186;2022-10-13T12:46:41;100947.16;;;13.85;70.58
40089;BME280;25793;55.706;13.186;2022-10-13T12:49:18;100945.66;;;13.43;72.07
40089;BME280;25793;55.706;13.186;2022-10-13T12:51:47;100942.25;;;13.81;71.12
40089;BME280;25793;55.706;13.186;2022-10-13T12:54:18;100948.22;;;13.96;70.63
40089;BME280;25793;55.706;13.186;2022-10-13T12:56:48;100949.66;;;14.13;69.98
40089;BME280;25793;55.706;13.186;2022-10-13T12:59:22;100947.22;;;13.58;71.31
40089;BME280;25793;55.706;13.186;2022-10-13T13:02:17;100959.66;;;13.41;72.13
40089;BME280;25793;55.706;13.186;2022-10-13T13:04:45;100955.88;;;13.18;73.35
40089;BME280;25793;55.706;13.186;2022-10-13T13:07:30;100950.31;;;13.37;73.13
40089;BME280;25793;55.706;13.186;2022-10-13T13:09:59;100952.84;;;13.52;72.75
40089;BME280;25793;55.706;13.186;2022-10-13T13:12:27;100950.00;;;13.15;74.07
40089;BME280;25793;55.706;13.186;2022-10-13T13:14:55;100944.00;;;13.54;72.78
40089;BME280;25793;55.706;13.186;2022-10-13T13:17:30;100934.16;;;13.71;72.23
40089;BME280;25793;55.706;13.186;2022-10-13T13:22:48;100940.34;;;13.83;71.45
40089;BME280;25793;55.706;13.186;2022-10-13T13:25:16;100937.44;;;14.00;71.35
40089;BME280;25793;55.706;13.186;2022-10-13T13:27:42;100944.84;;;14.07;70.63
40089;BME280;25793;55.706;13.186;2022-10-13T13:30:15;100936.81;;;14.10;70.61
40089;BME280;25793;55.706;13.186;2022-10-13T13:32:42;100927.91;;;13.99;71.13
40089;BME280;25793;55.706;13.186;2022-10-13T13:35:09;100923.41;;;14.14;70.77
40089;BME280;25793;55.706;13.186;2022-10-13T13:37:41;100926.97;;;13.75;71.52
40089;BME280;25793;55.706;13.186;2022-10-13T13:40:22;100920.81;;;13.76;71.64
40089;BME280;25793;55.706;13.186;2022-10-13T13:42:49;100917.47;;;13.74;72.16
40089;BME280;25793;55.706;13.186;2022-10-13T13:45:19;100911.06;;;14.16;70.69
40089;BME280;25793;55.706;13.186;2022-10-13T13:47:48;100916.47;;;14.26;70.12
40089;BME280;25793;55.706;13.186;2022-10-13T13:50:19;100926.03;;;14.01;70.40
40089;BME280;25793;55.706;13.186;2022-10-13T13:52:54;100915.03;;;14.09;70.29
40089;BME280;25793;55.706;13.186;2022-10-13T13:55:21;100915.13;;;13.82;71.11
40089;BME280;25793;55.706;13.186;2022-10-13T13:57:48;100914.00;;;13.60;71.74
40089;BME280;25793;55.706;13.186;2022-10-13T14:00:16;100912.72;;;13.66;72.25
40089;BME280;25793;55.706;13.186;2022-10-13T14:02:48;100919.59;;;13.14;73.71
40089;BME280;25793;55.706;13.186;2022-10-13T14:05:15;100917.91;;;13.40;73.55
40089;BME280;25793;55.706;13.186;2022-10-13T14:07:41;100906.47;;;13.81;72.63
40089;BME280;25793;55.706;13.186;2022-10-13T14:10:09;100903.66;;;13.84;72.26
40089;BME280;25793;55.706;13.186;2022-10-13T14:12:36;100903.88;;;13.68;72.17
40089;BME280;25793;55.706;13.186;2022-10-13T14:15:03;100899.56;;;13.54;72.57
40089;BME280;25793;55.706;13.186;2022-10-13T14:17:30;100903.66;;;13.84;72.16
40089;BME280;25793;55.706;13.186;2022-10-13T14:19:58;100897.81;;;13.81;72.16
40089;BME280;25793;55.706;13.186;2022-10-13T14:22:25;100892.66;;;14.05;71.43
40089;BME280;25793;55.706;13.186;2022-10-13T14:24:52;100895.06;;;13.95;71.56
40089;BME280;25793;55.706;13.186;2022-10-13T14:27:19;100895.47;;;14.02;71.86
40089;BME280;25793;55.706;13.186;2022-10-13T14:29:46;100893.50;;;13.54;73.12